createdAt,value
2018-05-24T00:01:21.015Z,17.00
2018-05-24T00:03:48.713Z,17.00
2018-05-24T00:06:16.342Z,17.00
2018-05-24T00:08:43.948Z,17.00
2018-05-24T00:11:12.373Z,16.90
2018-05-24T00:13:40.059Z,16.90
2018-05-24T00:16:07.717Z,16.90
2018-05-24T00:18:35.303Z,17.00
2018-05-24T00:21:03.024Z,17.00
2018-05-24T00:23:30.669Z,16.90
2018-05-24T00:25:58.355Z,16.90
2018-05-24T00:28:25.970Z,16.90
2018-05-24T00:30:55.048Z,16.90
2018-05-24T00:33:22.728Z,16.90
2018-05-24T00:35:51.131Z,16.80
2018-05-24T00:38:18.779Z,16.80
2018-05-24T00:40:47.158Z,16.80
2018-05-24T00:43:15.564Z,16.80
2018-05-24T00:45:43.214Z,16.70
2018-05-24T00:48:11.428Z,16.70
2018-05-24T00:50:39.111Z,16.80
2018-05-24T00:53:07.527Z,16.70
2018-05-24T00:55:42.109Z,16.70
2018-05-24T00:58:10.549Z,16.60
2018-05-24T01:00:38.202Z,16.70
2018-05-24T01:03:05.885Z,16.60
2018-05-24T01:05:33.646Z,16.60
2018-05-24T01:08:01.274Z,16.60
2018-05-24T01:10:28.908Z,16.60
2018-05-24T01:12:56.660Z,16.60
2018-05-24T01:15:24.284Z,16.60
2018-05-24T01:17:51.875Z,16.50
2018-05-24T01:20:20.644Z,16.50
2018-05-24T01:22:48.855Z,16.50
2018-05-24T01:25:18.115Z,16.40
2018-05-24T01:27:45.732Z,16.40
2018-05-24T01:30:14.972Z,16.40
2018-05-24T01:32:42.941Z,16.40
2018-05-24T01:35:10.537Z,16.40
2018-05-24T01:37:50.537Z,16.30
2018-05-24T01:40:18.155Z,16.30
2018-05-24T01:42:45.769Z,16.30
2018-05-24T01:45:13.407Z,16.30
2018-05-24T01:47:41.010Z,16.20
2018-05-24T01:50:08.649Z,16.20
2018-05-24T01:52:36.701Z,16.20
2018-05-24T01:55:04.349Z,16.20
2018-05-24T01:57:31.996Z,16.20
2018-05-24T01:59:59.590Z,16.20
2018-05-24T02:02:27.199Z,16.10
2018-05-24T02:04:55.594Z,16.10
2018-05-24T02:07:23.250Z,16.00
2018-05-24T02:09:51.643Z,16.00
2018-05-24T02:12:28.662Z,16.00
2018-05-24T02:15:00.616Z,16.00
2018-05-24T02:17:28.686Z,16.00
2018-05-24T02:19:57.771Z,16.00
2018-05-24T02:22:25.444Z,15.90
2018-05-24T02:24:53.037Z,15.90
2018-05-24T02:27:20.701Z,15.90
2018-05-24T02:29:49.089Z,15.80
2018-05-24T02:32:16.738Z,15.80
2018-05-24T02:34:45.281Z,15.80
2018-05-24T02:37:12.950Z,15.80
2018-05-24T02:39:40.578Z,15.80
2018-05-24T02:42:08.238Z,15.70
2018-05-24T02:44:35.892Z,15.70
2018-05-24T02:47:03.743Z,15.70
2018-05-24T02:49:31.423Z,15.70
2018-05-24T02:51:59.054Z,15.70
2018-05-24T02:54:27.453Z,15.70
2018-05-24T02:56:55.061Z,15.70
2018-05-24T02:59:22.705Z,15.70
2018-05-24T03:01:50.412Z,15.70
2018-05-24T03:04:17.919Z,15.70
2018-05-24T03:06:45.596Z,15.70
2018-05-24T03:09:13.242Z,15.70
2018-05-24T03:11:40.873Z,15.70
2018-05-24T03:14:08.486Z,15.60
2018-05-24T03:16:36.128Z,15.60
2018-05-24T03:19:03.721Z,15.60
2018-05-24T03:21:31.328Z,15.60
2018-05-24T03:23:59.019Z,15.60
2018-05-24T03:26:26.621Z,15.70
2018-05-24T03:28:54.995Z,15.70
2018-05-24T03:31:23.382Z,15.70
2018-05-24T03:33:51.011Z,15.70
2018-05-24T03:36:20.173Z,15.70
2018-05-24T03:38:47.795Z,15.70
2018-05-24T03:41:16.322Z,15.80
2018-05-24T03:43:43.972Z,15.70
2018-05-24T03:46:11.614Z,15.80
2018-05-24T03:48:39.884Z,15.80
2018-05-24T03:51:07.511Z,15.80
2018-05-24T03:53:35.899Z,15.90
2018-05-24T03:56:04.431Z,15.90
2018-05-24T03:58:32.040Z,15.80
2018-05-24T04:01:12.269Z,16.00
2018-05-24T04:03:48.207Z,16.00
2018-05-24T04:06:15.814Z,16.00
2018-05-24T04:08:44.264Z,16.00
2018-05-24T04:11:11.882Z,16.10
2018-05-24T04:13:39.473Z,16.10
2018-05-24T04:16:07.053Z,16.10
2018-05-24T04:18:34.651Z,16.10
2018-05-24T04:21:02.282Z,16.20
2018-05-24T04:23:29.882Z,16.20
2018-05-24T04:25:57.459Z,16.20
2018-05-24T04:28:25.107Z,16.20
2018-05-24T04:30:52.695Z,16.30
2018-05-24T04:33:20.337Z,16.30
2018-05-24T04:35:47.987Z,16.40
2018-05-24T04:38:15.602Z,16.40
2018-05-24T04:40:43.980Z,16.50
2018-05-24T04:43:12.364Z,16.60
2018-05-24T04:45:40.818Z,16.60
2018-05-24T04:48:08.451Z,16.60
2018-05-24T04:50:36.060Z,16.60
2018-05-24T04:53:04.411Z,16.70
2018-05-24T04:55:32.042Z,16.70
2018-05-24T04:57:59.661Z,16.70
2018-05-24T05:00:28.053Z,16.90
2018-05-24T05:02:56.810Z,17.00
2018-05-24T05:05:24.427Z,17.00
2018-05-24T05:07:52.036Z,17.10
2018-05-24T05:10:19.677Z,17.20
2018-05-24T05:12:47.341Z,17.30
2018-05-24T05:15:14.964Z,17.30
2018-05-24T05:17:43.148Z,17.40
2018-05-24T05:20:10.819Z,17.40
2018-05-24T05:22:38.445Z,17.40
2018-05-24T05:25:06.068Z,17.60
2018-05-24T05:27:33.705Z,17.60
2018-05-24T05:30:01.589Z,17.70
2018-05-24T05:32:29.176Z,17.80
2018-05-24T05:34:57.557Z,18.00
2018-05-24T05:37:25.952Z,18.10
2018-05-24T05:39:53.580Z,18.00
2018-05-24T05:42:21.792Z,18.20
2018-05-24T05:44:49.511Z,18.40
2018-05-24T05:47:17.118Z,18.40
2018-05-24T05:49:45.462Z,18.40
2018-05-24T05:52:13.907Z,18.20
2018-05-24T05:54:41.537Z,18.20
2018-05-24T05:57:09.173Z,18.30
2018-05-24T05:59:37.924Z,18.50
2018-05-24T06:02:05.557Z,18.50
2018-05-24T06:04:33.566Z,18.40
2018-05-24T06:07:01.910Z,18.50
2018-05-24T06:09:30.128Z,18.40
2018-05-24T06:11:58.538Z,18.50
2018-05-24T06:14:26.156Z,18.50
2018-05-24T06:16:53.801Z,18.50
2018-05-24T06:19:21.487Z,18.50
2018-05-24T06:21:49.870Z,19.00
2018-05-24T06:24:18.274Z,19.10
2018-05-24T06:26:45.913Z,19.10
2018-05-24T06:29:14.298Z,18.90
2018-05-24T06:31:42.660Z,19.00
2018-05-24T06:34:11.036Z,19.00
2018-05-24T06:36:38.615Z,19.00
2018-05-24T06:39:07.010Z,19.10
2018-05-24T06:41:34.636Z,19.10
2018-05-24T06:44:03.069Z,19.20
2018-05-24T06:46:30.780Z,19.10
2018-05-24T06:48:59.172Z,19.00
2018-05-24T06:51:27.544Z,19.10
2018-05-24T06:53:55.964Z,19.20
2018-05-24T06:56:23.629Z,19.10
2018-05-24T06:58:51.254Z,19.10
2018-05-24T07:01:18.845Z,19.20
2018-05-24T07:03:46.505Z,19.30
2018-05-24T07:06:14.138Z,19.40
2018-05-24T07:08:41.735Z,19.70
2018-05-24T07:11:10.231Z,20.00
2018-05-24T07:13:37.808Z,20.30
2018-05-24T07:16:05.657Z,20.70
2018-05-24T07:18:34.824Z,21.50
2018-05-24T07:21:03.173Z,21.40
2018-05-24T07:23:30.819Z,21.70
2018-05-24T07:25:59.207Z,22.20
2018-05-24T07:28:26.900Z,22.20
2018-05-24T07:30:54.568Z,22.00
2018-05-24T07:33:22.266Z,22.10
2018-05-24T07:35:49.918Z,22.40
2018-05-24T07:38:17.587Z,22.60
2018-05-24T07:40:45.181Z,22.50
2018-05-24T07:43:13.845Z,22.70
2018-05-24T07:45:42.486Z,22.70
2018-05-24T07:48:10.121Z,22.70
2018-05-24T07:50:37.730Z,22.60
2018-05-24T07:53:05.418Z,22.60
2018-05-24T07:55:34.610Z,22.50
2018-05-24T07:58:03.553Z,22.50
2018-05-24T08:00:31.275Z,22.60
2018-05-24T08:02:59.675Z,22.20
2018-05-24T08:05:28.330Z,22.10
2018-05-24T08:07:56.708Z,22.20
2018-05-24T08:10:25.106Z,22.30
2018-05-24T08:12:52.769Z,22.30
2018-05-24T08:15:20.385Z,22.20
2018-05-24T08:17:48.215Z,22.00
2018-05-24T08:20:15.914Z,21.90
2018-05-24T08:22:43.499Z,21.90
2018-05-24T08:25:12.025Z,22.00
2018-05-24T08:27:39.644Z,21.90
2018-05-24T08:30:07.309Z,22.00
2018-05-24T08:32:35.751Z,22.30
2018-05-24T08:35:03.415Z,22.30
2018-05-24T08:37:31.278Z,22.30
2018-05-24T08:39:58.912Z,22.30
2018-05-24T08:42:26.509Z,22.40
2018-05-24T08:44:54.181Z,22.70
2018-05-24T08:47:22.660Z,23.30
2018-05-24T08:49:51.079Z,23.60
2018-05-24T08:52:18.774Z,23.60
2018-05-24T08:54:47.160Z,23.70
2018-05-24T08:57:14.783Z,23.70
2018-05-24T08:59:42.900Z,23.70
2018-05-24T09:02:20.901Z,23.70
2018-05-24T09:04:52.201Z,23.60
2018-05-24T09:07:20.645Z,23.70
2018-05-24T09:09:49.851Z,23.80
2018-05-24T09:12:22.083Z,23.90
2018-05-24T09:14:52.700Z,23.90
2018-05-24T09:17:23.291Z,23.90
2018-05-24T09:19:50.979Z,23.90
2018-05-24T09:22:18.622Z,23.70
2018-05-24T09:24:46.621Z,23.80
2018-05-24T09:27:14.203Z,23.90
2018-05-24T09:29:41.812Z,23.90
2018-05-24T09:32:10.139Z,24.00
2018-05-24T09:34:38.858Z,23.80
2018-05-24T09:37:06.485Z,23.80
2018-05-24T09:39:34.243Z,23.70
2018-05-24T09:42:02.766Z,23.90
2018-05-24T09:44:30.392Z,23.90
2018-05-24T09:46:58.532Z,24.10
2018-05-24T09:49:26.221Z,24.20
2018-05-24T09:51:53.937Z,24.30
2018-05-24T09:54:23.188Z,24.40
2018-05-24T09:57:01.857Z,24.30
2018-05-24T09:59:31.474Z,24.10
2018-05-24T10:02:00.517Z,24.10
2018-05-24T10:04:28.366Z,24.20
2018-05-24T10:07:00.031Z,24.50
2018-05-24T10:09:30.364Z,24.50
2018-05-24T10:11:58.716Z,24.50
2018-05-24T10:14:26.308Z,24.50
2018-05-24T10:16:54.779Z,24.30
2018-05-24T10:19:23.158Z,24.40
2018-05-24T10:21:51.794Z,24.40
2018-05-24T10:24:19.463Z,24.40
2018-05-24T10:26:47.089Z,24.60
2018-05-24T10:29:14.742Z,24.60
2018-05-24T10:31:42.393Z,24.70
2018-05-24T10:34:10.740Z,25.00
2018-05-24T10:36:38.331Z,25.00
2018-05-24T10:39:06.866Z,25.30
2018-05-24T10:41:34.543Z,25.20
2018-05-24T10:44:02.225Z,25.40
2018-05-24T10:46:30.652Z,25.50
2018-05-24T10:48:58.296Z,25.40
2018-05-24T10:51:25.917Z,25.40
2018-05-24T10:53:53.585Z,25.30
2018-05-24T10:56:21.980Z,25.40
2018-05-24T10:58:50.329Z,25.50
2018-05-24T11:01:18.142Z,25.40
2018-05-24T11:03:45.812Z,25.60
2018-05-24T11:06:13.443Z,25.50
2018-05-24T11:08:41.376Z,25.60
2018-05-24T11:11:09.780Z,25.80
2018-05-24T11:13:38.284Z,25.60
2018-05-24T11:16:06.616Z,25.60
2018-05-24T11:18:34.506Z,25.60
2018-05-24T11:21:03.681Z,25.70
2018-05-24T11:23:31.426Z,25.70
2018-05-24T11:26:00.060Z,25.60
2018-05-24T11:28:28.651Z,25.70
2018-05-24T11:30:57.030Z,25.60
2018-05-24T11:33:24.924Z,25.60
2018-05-24T11:35:52.580Z,25.70
2018-05-24T11:38:20.325Z,25.90
2018-05-24T11:40:47.943Z,25.90
2018-05-24T11:43:17.261Z,25.90
2018-05-24T11:45:49.301Z,25.90
2018-05-24T11:48:17.151Z,25.90
2018-05-24T11:50:45.026Z,26.00
2018-05-24T11:53:14.083Z,26.20
2018-05-24T11:55:41.769Z,26.20
2018-05-24T11:58:09.391Z,26.40
2018-05-24T12:00:37.997Z,26.60
2018-05-24T12:03:05.734Z,26.60
2018-05-24T12:05:34.446Z,26.50
2018-05-24T12:08:04.578Z,26.50
2018-05-24T12:10:32.331Z,26.50
2018-05-24T12:13:01.685Z,26.70
2018-05-24T12:15:29.770Z,27.60
2018-05-24T12:17:57.405Z,28.50
2018-05-24T12:20:25.942Z,30.40
2018-05-24T12:22:53.553Z,30.40
2018-05-24T12:25:22.924Z,31.80
2018-05-24T12:27:50.594Z,31.70
2018-05-24T12:30:18.973Z,32.40
2018-05-24T12:32:46.610Z,32.30
2018-05-24T12:35:14.215Z,32.60
2018-05-24T12:37:42.611Z,33.90
2018-05-24T12:40:10.413Z,33.90
2018-05-24T12:42:38.015Z,34.70
2018-05-24T12:45:06.461Z,34.20
2018-05-24T12:47:34.068Z,34.10
2018-05-24T12:50:01.773Z,33.80
2018-05-24T12:52:29.423Z,35.10
2018-05-24T12:54:57.105Z,35.80
2018-05-24T12:57:24.761Z,35.30
2018-05-24T12:59:52.380Z,35.80
2018-05-24T13:02:19.996Z,36.70
2018-05-24T13:04:47.590Z,36.60
2018-05-24T13:07:15.997Z,37.40
2018-05-24T13:09:44.094Z,37.40
2018-05-24T13:12:11.748Z,36.10
2018-05-24T13:14:39.398Z,35.40
2018-05-24T13:17:07.374Z,35.50
2018-05-24T13:19:35.056Z,35.80
2018-05-24T13:22:04.235Z,36.50
2018-05-24T13:24:31.948Z,36.50
2018-05-24T13:26:59.754Z,36.10
2018-05-24T13:29:27.434Z,36.90
2018-05-24T13:31:55.138Z,37.40
2018-05-24T13:34:24.133Z,37.50
2018-05-24T13:36:52.589Z,38.40
2018-05-24T13:39:21.010Z,38.20
2018-05-24T13:41:48.642Z,38.10
2018-05-24T13:44:17.025Z,38.50
2018-05-24T13:46:45.499Z,38.80
2018-05-24T13:49:13.865Z,39.20
2018-05-24T13:51:42.125Z,39.20
2018-05-24T13:54:09.753Z,39.90
2018-05-24T13:56:37.380Z,40.60
2018-05-24T13:59:05.801Z,40.40
2018-05-24T14:01:33.543Z,40.40
2018-05-24T14:04:01.197Z,40.40
2018-05-24T14:06:28.839Z,40.10
2018-05-24T14:08:57.244Z,40.80
2018-05-24T14:11:24.945Z,40.70
2018-05-24T14:13:52.561Z,40.60
2018-05-24T14:16:20.180Z,39.30
2018-05-24T14:18:47.826Z,39.50
2018-05-24T14:21:15.618Z,40.30
2018-05-24T14:23:44.024Z,41.40
2018-05-24T14:26:11.798Z,41.40
2018-05-24T14:28:39.479Z,41.00
2018-05-24T14:31:07.801Z,41.50
2018-05-24T14:33:36.318Z,42.40
2018-05-24T14:36:03.931Z,42.30
2018-05-24T14:38:33.024Z,42.10
2018-05-24T14:41:00.806Z,42.10
2018-05-24T14:43:29.185Z,42.70
2018-05-24T14:45:57.659Z,43.00
2018-05-24T14:48:26.040Z,42.60
2018-05-24T14:50:54.437Z,42.90
2018-05-24T14:53:22.855Z,41.90
2018-05-24T14:55:50.527Z,41.80
2018-05-24T14:58:18.250Z,40.30
2018-05-24T15:00:45.905Z,39.80
2018-05-24T15:03:14.243Z,39.70
2018-05-24T15:05:41.896Z,40.00
2018-05-24T15:08:11.421Z,42.40
2018-05-24T15:10:41.055Z,42.70
2018-05-24T15:13:08.690Z,42.60
2018-05-24T15:15:37.055Z,40.30
2018-05-24T15:18:05.409Z,40.10
2018-05-24T15:20:33.038Z,40.00
2018-05-24T15:23:01.263Z,41.00
2018-05-24T15:25:28.918Z,41.60
2018-05-24T15:27:57.305Z,42.10
2018-05-24T15:30:25.868Z,42.50
2018-05-24T15:32:53.497Z,42.60
2018-05-24T15:35:22.550Z,41.50
2018-05-24T15:37:51.542Z,42.80
2018-05-24T15:40:19.959Z,42.20
2018-05-24T15:42:47.619Z,42.20
2018-05-24T15:45:15.203Z,41.80
2018-05-24T15:47:42.864Z,41.20
2018-05-24T15:50:10.541Z,41.40
2018-05-24T15:52:38.189Z,42.00
2018-05-24T15:55:05.826Z,42.30
2018-05-24T15:57:33.446Z,42.00
2018-05-24T16:00:04.445Z,41.60
2018-05-24T16:02:32.949Z,41.30
2018-05-24T16:05:00.609Z,41.20
2018-05-24T16:07:28.217Z,41.40
2018-05-24T16:09:56.416Z,41.30
2018-05-24T16:12:24.086Z,42.20
2018-05-24T16:14:51.694Z,42.40
2018-05-24T16:17:20.100Z,43.00
2018-05-24T16:19:47.914Z,43.00
2018-05-24T16:22:15.553Z,43.10
2018-05-24T16:24:43.174Z,42.60
2018-05-24T16:27:10.839Z,42.20
2018-05-24T16:29:38.446Z,42.20
2018-05-24T16:32:06.041Z,42.20
2018-05-24T16:34:34.430Z,38.30
2018-05-24T16:37:02.630Z,38.20
2018-05-24T16:39:30.478Z,36.40
2018-05-24T16:41:58.983Z,34.60
2018-05-24T16:44:26.569Z,33.00
2018-05-24T16:46:54.248Z,31.50
2018-05-24T16:49:23.423Z,30.10
2018-05-24T16:51:51.026Z,30.10
2018-05-24T16:54:19.477Z,29.00
2018-05-24T16:56:48.586Z,28.60
2018-05-24T16:59:17.014Z,28.50
2018-05-24T17:01:44.636Z,28.50
2018-05-24T17:04:13.016Z,27.90
2018-05-24T17:06:40.620Z,27.90
2018-05-24T17:09:08.220Z,27.90
2018-05-24T17:11:36.615Z,27.70
2018-05-24T17:14:05.013Z,27.60
2018-05-24T17:16:33.043Z,27.60
2018-05-24T17:19:01.433Z,27.50
2018-05-24T17:21:29.886Z,27.50
2018-05-24T17:23:57.468Z,27.40
2018-05-24T17:26:25.844Z,27.10
2018-05-24T17:28:54.228Z,27.00
2018-05-24T17:31:22.616Z,26.90
2018-05-24T17:33:51.041Z,26.80
2018-05-24T17:36:18.617Z,26.70
2018-05-24T17:38:47.732Z,26.60
2018-05-24T17:41:16.855Z,26.50
2018-05-24T17:43:44.472Z,26.50
2018-05-24T17:46:12.876Z,26.40
2018-05-24T17:48:41.238Z,26.30
2018-05-24T17:53:42.796Z,26.10
2018-05-24T17:56:11.356Z,26.00
2018-05-24T17:58:39.050Z,25.90
2018-05-24T18:01:07.416Z,25.80
2018-05-24T18:03:35.181Z,25.70
2018-05-24T18:06:03.536Z,25.60
2018-05-24T18:08:31.209Z,25.50
2018-05-24T18:10:59.602Z,25.40
2018-05-24T18:13:27.222Z,25.40
2018-05-24T18:15:54.880Z,25.30
2018-05-24T18:18:22.484Z,25.10
2018-05-24T18:20:50.210Z,25.10
2018-05-24T18:23:17.871Z,25.00
2018-05-24T18:25:45.535Z,24.90
2018-05-24T18:28:13.120Z,24.70
2018-05-24T18:30:40.786Z,24.70
2018-05-24T18:33:08.515Z,24.60
2018-05-24T18:35:36.135Z,24.50
2018-05-24T18:38:04.643Z,24.30
2018-05-24T18:40:32.280Z,24.30
2018-05-24T18:43:02.672Z,24.10
2018-05-24T18:45:30.347Z,24.10
2018-05-24T18:47:58.796Z,23.90
2018-05-24T18:50:26.772Z,23.90
2018-05-24T18:52:54.372Z,23.90
2018-05-24T18:55:22.761Z,23.70
2018-05-24T18:57:50.421Z,23.70
2018-05-24T19:00:18.790Z,23.50
2018-05-24T19:02:46.495Z,23.60
2018-05-24T19:05:14.170Z,23.50
2018-05-24T19:07:42.026Z,23.40
2018-05-24T19:10:11.058Z,23.30
2018-05-24T19:12:39.508Z,23.10
2018-05-24T19:15:07.444Z,23.10
2018-05-24T19:17:35.097Z,23.00
2018-05-24T19:20:02.766Z,23.00
2018-05-24T19:22:31.066Z,22.90
2018-05-24T19:25:01.695Z,22.80
2018-05-24T19:27:29.420Z,22.70
2018-05-24T19:29:57.781Z,22.70
2018-05-24T19:32:27.959Z,22.50
2018-05-24T19:34:56.462Z,22.50
2018-05-24T19:37:24.174Z,22.50
2018-05-24T19:39:51.959Z,22.40
2018-05-24T19:42:21.312Z,22.30
2018-05-24T19:44:51.077Z,22.20
2018-05-24T19:47:18.753Z,22.20
2018-05-24T19:49:46.626Z,22.20
2018-05-24T19:52:14.268Z,22.10
2018-05-24T19:54:41.919Z,22.10
2018-05-24T19:57:09.577Z,22.00
2018-05-24T19:59:37.194Z,21.90
2018-05-24T20:02:05.653Z,21.90
2018-05-24T20:04:34.814Z,21.80
2018-05-24T20:07:05.911Z,21.70
2018-05-24T20:09:34.951Z,21.70
2018-05-24T20:12:04.964Z,21.70
2018-05-24T20:14:34.059Z,21.60
2018-05-24T20:17:03.666Z,21.60
2018-05-24T20:19:32.868Z,21.60
2018-05-24T20:22:02.578Z,21.50
2018-05-24T20:24:32.594Z,21.40
2018-05-24T20:27:01.891Z,21.40
2018-05-24T20:29:31.084Z,21.40
2018-05-24T20:32:00.147Z,21.30
2018-05-24T20:34:28.253Z,21.30
2018-05-24T20:36:57.242Z,21.30
2018-05-24T20:39:26.445Z,21.20
2018-05-24T20:41:55.330Z,21.20
2018-05-24T20:44:24.426Z,21.10
2018-05-24T20:46:52.805Z,21.10
2018-05-24T20:49:22.407Z,21.00
2018-05-24T20:51:52.539Z,20.90
2018-05-24T20:54:21.433Z,20.90
2018-05-24T20:56:50.614Z,20.90
2018-05-24T20:59:19.404Z,20.90
2018-05-24T21:01:49.524Z,20.80
2018-05-24T21:04:18.412Z,20.80
2018-05-24T21:06:48.324Z,20.70
2018-05-24T21:09:18.340Z,20.60
2018-05-24T21:11:48.174Z,20.60
2018-05-24T21:14:16.428Z,20.60
2018-05-24T21:16:45.287Z,20.50
2018-05-24T21:19:14.278Z,20.50
2018-05-24T21:21:43.100Z,20.50
2018-05-24T21:24:11.884Z,20.40
2018-05-24T21:26:39.967Z,20.40
2018-05-24T21:29:08.865Z,20.30
2018-05-24T21:31:38.272Z,20.20
2018-05-24T21:34:07.137Z,20.20
2018-05-24T21:36:35.215Z,20.20
2018-05-24T21:39:03.692Z,20.20
2018-05-24T21:41:31.428Z,20.20
2018-05-24T21:43:59.094Z,20.10
2018-05-24T21:46:27.804Z,20.10
2018-05-24T21:48:55.490Z,20.10
2018-05-24T21:51:23.735Z,20.10
2018-05-24T21:53:51.660Z,20.00
2018-05-24T21:56:20.400Z,19.90
2018-05-24T21:58:48.110Z,19.90
2018-05-24T22:01:16.842Z,19.80
2018-05-24T22:03:45.329Z,19.80
2018-05-24T22:06:13.844Z,19.70
2018-05-24T22:08:42.254Z,19.70
2018-05-24T22:11:09.960Z,19.70
2018-05-24T22:13:39.067Z,19.60
2018-05-24T22:16:08.364Z,19.60
2018-05-24T22:18:36.789Z,19.60
2018-05-24T22:21:04.660Z,19.60
2018-05-24T22:23:32.316Z,19.60
2018-05-24T22:26:00.039Z,19.60
2018-05-24T22:28:29.118Z,19.50
2018-05-24T22:30:56.751Z,19.50
2018-05-24T22:33:24.393Z,19.50
2018-05-24T22:35:52.677Z,19.50
2018-05-24T22:38:21.381Z,19.40
2018-05-24T22:40:49.177Z,19.40
2018-05-24T22:43:17.569Z,19.30
2018-05-24T22:45:46.049Z,19.30
2018-05-24T22:48:14.443Z,19.30
2018-05-24T22:50:42.170Z,19.20
2018-05-24T22:53:09.787Z,19.20
2018-05-24T22:55:37.416Z,19.20
2018-05-24T22:58:05.811Z,19.20
2018-05-24T23:00:33.513Z,19.10
2018-05-24T23:03:01.145Z,19.20
2018-05-24T23:05:28.767Z,19.10
2018-05-24T23:07:56.372Z,19.10
2018-05-24T23:10:23.978Z,19.10
2018-05-24T23:12:52.262Z,19.10
2018-05-24T23:15:20.846Z,19.00
2018-05-24T23:17:49.228Z,19.00
2018-05-24T23:20:16.812Z,18.90
2018-05-24T23:22:44.421Z,18.90
2018-05-24T23:25:12.187Z,18.90
2018-05-24T23:27:39.818Z,18.90
2018-05-24T23:30:07.431Z,18.90
2018-05-24T23:32:35.812Z,18.80
2018-05-24T23:35:04.156Z,18.70
2018-05-24T23:37:31.790Z,18.70
2018-05-24T23:39:59.840Z,18.70
2018-05-24T23:42:27.540Z,18.70
2018-05-24T23:44:55.169Z,18.60
2018-05-24T23:47:22.752Z,18.60
2018-05-24T23:49:50.364Z,18.60
2018-05-24T23:52:18.744Z,18.50
2018-05-24T23:54:47.738Z,18.50
2018-05-24T23:57:16.726Z,18.50
2018-05-24T23:59:45.129Z,18.40
